Time;durP1;ratioP1;P1;durP2;ratioP2;P2;SDS_P1;SDS_P2;PMS_P1;PMS_P2;Temp;Humidity;BMP_temperature;BMP_pressure;BME280_temperature;BME280_humidity;BME280_pressure;Samples;Min_cycle;Max_cycle;Signal;HPM_P1;HPM_P2
2021/09/17 00:02:01;;;;;;;32.88;21.67;;;;;;;19.97;57.02;101760.59;10583174;28;20562;-75
2021/09/17 00:07:01;;;;;;;26.98;22.33;;;;;;;19.93;56.82;101748.41;10549370;28;20036;-75
2021/09/17 00:12:03;;;;;;;32.72;23.40;;;;;;;20.03;56.02;101754.13;10583734;28;20042;-75
2021/09/17 00:17:03;;;;;;;31.80;21.63;;;;;;;19.75;56.81;101697.16;10584545;28;20031;-75
2021/09/17 00:22:04;;;;;;;35.38;21.38;;;;;;;19.38;55.81;101619.59;10584536;28;20051;-75
2021/09/17 00:27:05;;;;;;;30.30;21.00;;;;;;;20.16;56.59;101742.88;10565826;28;20042;-75
2021/09/17 00:32:06;;;;;;;25.63;19.33;;;;;;;20.21;56.10;101740.25;10565678;28;20043;-75
2021/09/17 00:37:07;;;;;;;27.58;20.88;;;;;;;20.28;55.89;101740.13;10564496;28;20485;-75
2021/09/17 00:42:07;;;;;;;26.02;19.92;;;;;;;20.30;55.88;101732.47;10567283;28;20027;-75
2021/09/17 00:47:08;;;;;;;31.63;19.00;;;;;;;20.33;55.96;101728.41;10585636;28;20494;-75
2021/09/17 00:52:08;;;;;;;28.83;21.55;;;;;;;20.31;55.75;101725.06;10584904;28;20035;-75
2021/09/17 00:57:09;;;;;;;29.92;21.63;;;;;;;20.30;55.61;101721.47;10566268;28;20035;-75
2021/09/17 01:02:09;;;;;;;38.92;22.75;;;;;;;20.03;55.63;101688.13;10563766;28;20104;-73
2021/09/17 01:07:11;;;;;;;27.42;20.85;;;;;;;19.27;55.89;101567.19;10582816;28;20039;-75
2021/09/17 01:12:11;;;;;;;29.60;19.98;;;;;;;20.31;55.94;101709.38;10563739;28;20450;-75
2021/09/17 01:17:12;;;;;;;35.83;22.55;;;;;;;20.30;56.16;101701.38;10547263;28;20034;-75
2021/09/17 01:22:13;;;;;;;31.92;21.38;;;;;;;18.71;56.00;101447.81;10564256;28;20383;-75
2021/09/17 01:27:13;;;;;;;31.40;21.27;;;;;;;19.34;55.96;101574.47;10564574;28;20031;-75
2021/09/17 01:32:15;;;;;;;30.27;22.90;;;;;;;20.26;55.78;101689.16;10562620;28;20024;-73
2021/09/17 01:37:16;;;;;;;27.38;21.00;;;;;;;20.19;56.55;101684.63;10562842;28;20384;-75
2021/09/17 01:42:17;;;;;;;32.33;23.10;;;;;;;20.20;56.40;101680.00;10581339;28;20031;-75
2021/09/17 01:47:17;;;;;;;35.50;24.15;;;;;;;19.93;56.33;101658.50;10581687;28;20035;-74
2021/09/17 01:52:18;;;;;;;47.80;27.30;;;;;;;20.15;56.52;101691.72;10581195;28;20042;-75
2021/09/17 01:57:18;;;;;;;42.65;28.75;;;;;;;20.08;57.34;101666.28;10546606;28;20475;-75
2021/09/17 02:02:19;;;;;;;43.65;29.75;;;;;;;20.15;57.33;101666.97;10562609;28;20052;-75
2021/09/17 02:07:19;;;;;;;44.00;29.13;;;;;;;19.26;56.89;101516.06;10582457;28;20039;-75
2021/09/17 02:12:20;;;;;;;49.67;30.05;;;;;;;20.13;57.35;101660.88;10562136;28;20039;-75
2021/09/17 02:17:23;;;;;;;45.92;32.00;;;;;;;20.15;57.27;101661.47;10582003;28;20035;-74
2021/09/17 02:22:24;;;;;;;60.90;34.50;;;;;;;19.97;57.69;101628.63;10563679;28;20036;-75
2021/09/17 02:27:24;;;;;;;49.28;34.50;;;;;;;19.12;57.96;101481.72;10580855;28;20046;-75
2021/09/17 02:32:25;;;;;;;57.85;38.30;;;;;;;18.63;57.82;101396.03;10562939;28;20032;-75
2021/09/17 02:37:25;;;;;;;61.30;38.00;;;;;;;20.33;57.09;101651.38;10569416;28;20048;-74
2021/09/17 02:42:26;;;;;;;64.80;41.10;;;;;;;19.45;57.13;101519.50;10569750;28;20035;-75
2021/09/17 02:47:26;;;;;;;67.93;42.17;;;;;;;19.26;59.05;101482.28;10587431;28;20459;-74
2021/09/17 02:52:27;;;;;;;65.22;40.58;;;;;;;20.18;58.45;101622.47;10587277;28;20031;-75
2021/09/17 02:57:27;;;;;;;68.03;41.58;;;;;;;20.23;59.09;101627.25;10586663;28;20039;-75
2021/09/17 03:02:28;;;;;;;56.63;37.58;;;;;;;20.32;58.67;101608.44;10586290;28;20359;-75
2021/09/17 03:07:28;;;;;;;64.97;38.53;;;;;;;19.86;58.16;101525.88;10588047;28;20043;-74
2021/09/17 03:12:29;;;;;;;68.18;36.17;;;;;;;20.14;58.75;101581.97;10587634;28;20039;-75
2021/09/17 03:17:29;;;;;;;71.53;38.75;;;;;;;20.22;58.75;101598.06;10586881;28;20035;-74
2021/09/17 03:22:30;;;;;;;75.22;43.38;;;;;;;20.09;59.52;101592.84;10587590;28;20044;-75
2021/09/17 03:27:31;;;;;;;72.32;40.33;;;;;;;19.68;60.29;101526.88;10587526;28;20047;-75
2021/09/17 03:32:31;;;;;;;53.70;37.30;;;;;;;20.30;59.31;101586.69;10585979;28;20038;-75
2021/09/17 03:37:32;;;;;;;63.00;38.28;;;;;;;20.36;59.15;101587.63;10586793;28;20171;-75
2021/09/17 03:42:32;;;;;;;59.47;36.75;;;;;;;20.44;58.82;101596.31;10586505;28;20042;-75
2021/09/17 03:47:33;;;;;;;69.45;39.35;;;;;;;19.65;58.60;101460.59;10566497;28;20042;-75
2021/09/17 03:52:33;;;;;;;69.68;41.63;;;;;;;20.24;58.70;101548.34;10550704;28;20031;-75
2021/09/17 03:57:34;;;;;;;69.75;41.53;;;;;;;18.91;59.33;101361.56;10566820;28;20032;-75
2021/09/17 04:02:34;;;;;;;65.50;39.28;;;;;;;20.30;58.66;101578.44;10567279;28;20035;-75
2021/09/17 04:07:39;;;;;;;72.32;41.92;;;;;;;20.32;59.19;101576.25;10585038;28;20027;-74
2021/09/17 04:12:40;;;;;;;69.80;40.03;;;;;;;19.81;59.17;101491.97;10586247;28;20031;-75
2021/09/17 04:17:41;;;;;;;56.65;38.90;;;;;;;20.24;59.31;101579.41;10566461;28;20049;-74
2021/09/17 04:22:41;;;;;;;55.88;38.45;;;;;;;19.81;58.26;101511.19;10566202;28;20371;-75
2021/09/17 04:27:44;;;;;;;68.97;38.97;;;;;;;19.81;58.96;101501.03;10525490;28;20051;-75
2021/09/17 04:32:45;;;;;;;69.95;39.90;;;;;;;19.72;59.53;101492.38;10564654;28;20437;-75
2021/09/17 04:37:47;;;;;;;63.33;40.00;;;;;;;20.08;59.13;101567.28;10583788;28;20036;-74
2021/09/17 04:42:48;;;;;;;68.78;38.20;;;;;;;20.10;59.39;101580.78;10565736;28;20035;-76
2021/09/17 04:47:48;;;;;;;63.65;37.97;;;;;;;19.99;59.20;101577.00;10583211;28;20443;-74
2021/09/17 04:52:51;;;;;;;68.72;39.55;;;;;;;20.02;59.30;101581.19;10562798;28;20118;-76
2021/09/17 04:57:51;;;;;;;64.78;39.40;;;;;;;19.34;59.14;101479.16;10539183;28;20056;-75
2021/09/17 05:02:52;;;;;;;54.13;38.45;;;;;;;19.80;59.91;101581.81;10522006;28;20036;-76
2021/09/17 05:07:53;;;;;;;57.75;38.03;;;;;;;19.64;60.12;101571.59;10540300;28;20040;-76
2021/09/17 05:12:53;;;;;;;73.97;40.78;;;;;;;19.49;60.16;101552.81;10522612;28;20463;-75
2021/09/17 05:17:54;;;;;;;63.85;39.75;;;;;;;19.58;60.26;101595.31;10522577;28;20038;-75
2021/09/17 05:22:54;;;;;;;67.38;38.42;;;;;;;18.96;60.43;101505.22;10541035;28;20043;-75
2021/09/17 05:27:55;;;;;;;73.20;40.85;;;;;;;19.41;60.39;101577.91;10541572;28;20044;-75
2021/09/17 05:33:10;;;;;;;58.08;39.13;;;;;;;19.28;60.89;101577.09;10527748;28;20091;-73
2021/09/17 05:38:11;;;;;;;66.90;42.05;;;;;;;18.28;60.47;101420.69;10558030;28;20394;-74
2021/09/17 05:43:11;;;;;;;90.97;46.92;;;;;;;19.24;60.76;101581.38;10545260;28;20024;-76
2021/09/17 05:48:12;;;;;;;81.68;45.35;;;;;;;19.20;60.49;101576.59;10522257;28;20399;-74
2021/09/17 05:53:15;;;;;;;80.40;45.75;;;;;;;19.21;61.38;101587.34;10541131;28;20028;-74
2021/09/17 05:58:15;;;;;;;83.15;48.97;;;;;;;19.21;59.98;101589.28;10541418;28;20048;-75
2021/09/17 06:03:16;;;;;;;92.05;50.08;;;;;;;19.10;61.23;101549.72;10540183;28;20039;-75
2021/09/17 06:08:17;;;;;;;70.72;46.05;;;;;;;18.90;60.46;101521.81;10541642;28;20387;-74
2021/09/17 06:13:17;;;;;;;79.07;52.35;;;;;;;19.34;60.09;101583.53;10529726;28;20539;-74
2021/09/17 06:18:19;;;;;;;83.55;51.38;;;;;;;19.40;61.94;101582.56;10547874;28;20044;-75
2021/09/17 06:23:20;;;;;;;84.13;50.25;;;;;;;19.06;61.40;101499.13;10545825;28;20046;-75
2021/09/17 06:28:20;;;;;;;85.32;51.75;;;;;;;19.68;61.52;101590.06;10530240;28;20036;-73
2021/09/17 06:33:21;;;;;;;87.70;50.35;;;;;;;19.70;61.38;101567.88;10545445;28;20028;-75
2021/09/17 06:38:21;;;;;;;96.45;53.65;;;;;;;19.91;60.10;101593.84;10529333;28;20460;-75
2021/09/17 06:43:22;;;;;;;81.10;51.47;;;;;;;19.31;61.81;101484.31;10545938;28;20036;-75
2021/09/17 06:48:22;;;;;;;79.55;50.47;;;;;;;19.51;61.23;101479.25;10527114;28;20092;-75
2021/09/17 06:53:23;;;;;;;89.13;50.75;;;;;;;19.95;61.85;101562.06;10545054;28;20046;-75
2021/09/17 06:58:28;;;;;;;83.10;48.80;;;;;;;20.48;60.92;101602.13;10544517;28;20483;-75
2021/09/17 07:03:29;;;;;;;92.15;50.80;;;;;;;20.59;61.00;101578.44;10545530;28;20567;-76
2021/09/17 07:08:30;;;;;;;81.35;47.67;;;;;;;19.98;60.64;101446.97;10509860;28;20028;-75
2021/09/17 07:13:31;;;;;;;72.40;48.90;;;;;;;20.67;60.38;101536.75;10544514;28;20084;-75
2021/09/17 07:18:31;;;;;;;85.70;50.95;;;;;;;20.67;60.55;101529.31;10543959;28;20036;-75
2021/09/17 07:23:32;;;;;;;78.97;48.60;;;;;;;21.18;60.40;101586.28;10525791;28;20480;-75
2021/09/17 07:28:33;;;;;;;72.93;46.67;;;;;;;20.71;60.82;101499.41;10543328;28;20078;-75
2021/09/17 07:33:34;;;;;;;77.43;49.63;;;;;;;21.45;60.69;101580.97;10525320;28;20040;-75
2021/09/17 07:38:34;;;;;;;64.57;45.78;;;;;;;21.60;60.27;101589.41;10543528;28;20043;-74
2021/09/17 07:43:35;;;;;;;69.32;43.17;;;;;;;21.56;60.88;101580.84;10543561;28;20036;-75
2021/09/17 07:48:35;;;;;;;80.07;44.58;;;;;;;21.77;59.92;101575.63;10543715;28;20048;-76
2021/09/17 07:53:36;;;;;;;63.60;42.67;;;;;;;22.26;59.02;101579.25;10543475;28;20084;-75
2021/09/17 07:58:36;;;;;;;65.50;40.85;;;;;;;22.45;58.58;101545.78;10542371;28;20060;-75
2021/09/17 08:03:37;;;;;;;82.60;46.33;;;;;;;22.84;57.92;101557.44;10523255;28;20463;-75
2021/09/17 08:08:38;;;;;;;62.53;40.10;;;;;;;22.94;57.85;101570.53;10523594;28;20028;-75
2021/09/17 08:13:39;;;;;;;60.63;42.25;;;;;;;23.35;57.49;101576.34;10541751;28;20047;-75
2021/09/17 08:18:39;;;;;;;71.80;38.83;;;;;;;24.11;55.53;101579.50;10541334;28;20460;-75
2021/09/17 08:23:40;;;;;;;53.30;41.35;;;;;;;25.00;54.16;101610.69;10540995;28;20034;-75
2021/09/17 08:28:40;;;;;;;44.88;33.75;;;;;;;24.72;53.22;101492.97;10541275;28;20046;-75
2021/09/17 08:33:42;;;;;;;46.92;35.15;;;;;;;25.39;52.44;101559.41;10540220;28;20039;-75
2021/09/17 08:38:42;;;;;;;49.10;32.22;;;;;;;25.41;52.09;101559.97;10540504;28;20361;-75
2021/09/17 08:43:46;;;;;;;43.65;30.33;;;;;;;25.62;51.89;101591.22;10540653;28;20031;-75
2021/09/17 08:48:49;;;;;;;50.40;31.10;;;;;;;25.22;51.86;101593.81;10522822;28;20114;-76
2021/09/17 08:53:50;;;;;;;44.88;27.85;;;;;;;25.36;51.76;101598.78;10522620;28;20062;-75
2021/09/17 08:58:50;;;;;;;39.58;25.98;;;;;;;25.93;50.47;101603.06;10522084;28;20056;-75
2021/09/17 09:03:51;;;;;;;37.50;24.80;;;;;;;27.29;48.59;101621.94;10522366;28;20040;-74
2021/09/17 09:08:51;;;;;;;39.75;23.52;;;;;;;28.16;46.04;101597.88;10522773;28;20372;-75
2021/09/17 09:14:09;;;;;;;29.42;20.30;;;;;;;27.96;45.59;101455.03;10521943;28;20039;-76
2021/09/17 09:19:29;;;;;;;32.03;20.83;;;;;;;27.62;45.32;101471.91;10505671;28;20487;-75
2021/09/17 09:24:40;;;;;;;25.63;15.63;;;;;;;27.76;45.91;101608.34;10521912;28;20023;-75
2021/09/17 09:29:42;;;;;;;31.25;17.90;;;;;;;26.90;46.62;101596.97;10540375;28;20059;-76
2021/09/17 09:34:47;;;;;;;17.83;15.75;;;;;;;26.82;47.24;101569.78;10504983;28;20091;-75
2021/09/17 09:39:52;;;;;;;19.17;14.82;;;;;;;28.21;45.14;101604.19;10521685;28;20028;-74
2021/09/17 09:45:13;;;;;;;21.70;16.50;;;;;;;29.13;44.40;101597.25;10526709;28;20035;-75
2021/09/17 09:50:24;;;;;;;24.23;14.65;;;;;;;28.67;43.04;101494.03;10548185;28;20462;-74
2021/09/17 09:55:25;;;;;;;14.82;13.30;;;;;;;29.18;41.98;101596.31;10547974;28;20460;-75
2021/09/17 10:00:27;;;;;;;17.83;12.55;;;;;;;30.08;40.57;101589.22;10547980;28;20041;-75
2021/09/17 10:05:30;;;;;;;10.88;9.77;;;;;;;30.97;38.54;101572.94;10547078;28;20094;-75
2021/09/17 10:10:31;;;;;;;12.18;8.60;;;;;;;31.79;37.44;101553.91;10563829;28;20036;-75
2021/09/17 10:15:35;;;;;;;7.82;7.13;;;;;;;32.18;36.65;101600.63;10553849;28;20463;-75
2021/09/17 10:20:36;;;;;;;3.67;3.47;;;;;;;31.36;34.90;101395.84;10554406;28;20039;-76
2021/09/17 10:25:37;;;;;;;4.47;4.03;;;;;;;31.81;35.14;101585.19;10588452;28;20039;-75
2021/09/17 10:30:39;;;;;;;3.72;3.42;;;;;;;31.87;34.75;101565.09;10553057;28;20040;-75
2021/09/17 10:35:43;;;;;;;2.30;2.17;;;;;;;32.18;34.83;101589.41;10587300;28;20036;-75
2021/09/17 10:41:01;;;;;;;4.13;3.28;;;;;;;32.88;33.17;101553.81;10587663;28;20027;-75
2021/09/17 10:46:04;;;;;;;4.10;1.98;;;;;;;32.05;33.82;101509.16;10587439;28;20473;-75
2021/09/17 10:51:05;;;;;;;16.55;2.08;;;;;;;32.43;33.71;101582.22;10552407;28;20041;-75
2021/09/17 10:56:11;;;;;;;2.83;2.28;;;;;;;31.21;34.71;101495.06;10568625;28;20040;-76
2021/09/17 11:01:12;;;;;;;;;;;;;;;30.63;36.58;101579.88;10539627;28;20388;-75
2021/09/17 11:06:18;;;;;;;2.08;1.98;;;;;;;30.77;37.04;101597.47;10543819;28;20002;-76
2021/09/17 11:11:32;;;;;;;3.30;3.00;;;;;;;31.94;35.94;101573.06;10544295;28;20336;-76
2021/09/17 11:16:33;;;;;;;3.17;2.60;;;;;;;32.31;33.54;101580.03;10527245;28;20055;-76
2021/09/17 11:21:38;;;;;;;2.95;2.38;;;;;;;31.93;33.82;101571.41;10543959;28;20036;-75
2021/09/17 11:26:38;;;;;;;2.95;1.65;;;;;;;30.15;34.80;101549.69;10544104;28;20392;-75
2021/09/17 11:31:56;;;;;;;3.75;2.50;;;;;;;30.66;35.99;101604.41;10543356;28;20030;-75
2021/09/17 11:36:58;;;;;;;1.73;1.63;;;;;;;30.80;34.94;101585.66;10543514;28;20059;-75
2021/09/17 11:42:09;;;;;;;5.45;2.90;;;;;;;30.37;36.43;101554.53;10542860;28;20036;-76
2021/09/17 11:47:12;;;;;;;1.83;1.73;;;;;;;30.89;36.08;101524.19;10543146;28;20437;-75
2021/09/17 11:52:19;;;;;;;6.07;2.20;;;;;;;32.02;35.44;101582.63;10524667;28;20067;-75
2021/09/17 11:57:20;;;;;;;20.52;2.38;;;;;;;32.39;33.68;101586.81;10543126;28;20096;-76
2021/09/17 12:02:25;;;;;;;4.80;3.35;;;;;;;32.73;33.56;101571.97;10581982;28;20055;-75
2021/09/17 12:07:29;;;;;;;5.97;4.05;;;;;;;32.24;33.77;101573.28;10565381;28;20108;-76
2021/09/17 12:12:33;;;;;;;11.40;3.03;;;;;;;31.39;34.90;101609.91;10584889;28;20027;-75
2021/09/17 12:17:34;;;;;;;5.82;2.70;;;;;;;31.48;34.52;101582.78;10566455;28;20043;-75
2021/09/17 12:22:40;;;;;;;11.50;3.30;;;;;;;31.81;34.80;101571.19;10565857;28;20043;-75
2021/09/17 12:27:42;;;;;;;1.75;1.65;;;;;;;32.01;33.91;101575.41;10583545;28;20088;-75
2021/09/17 12:32:43;;;;;;;4.40;2.78;;;;;;;32.64;33.09;101562.72;10564760;28;20063;-75
2021/09/17 12:37:54;;;;;;;3.40;2.75;;;;;;;32.00;34.50;101416.84;10547901;28;20142;-75
2021/09/17 12:42:59;;;;;;;4.68;2.95;;;;;;;32.31;34.09;101588.44;10583284;28;20486;-75
2021/09/17 12:48:01;;;;;;;2.60;2.50;;;;;;;31.21;35.13;101539.81;10582930;28;20067;-75
2021/09/17 12:53:09;;;;;;;2.72;2.53;;;;;;;30.37;36.52;101556.50;10547341;28;20046;-75
2021/09/17 12:58:20;;;;;;;2.97;2.50;;;;;;;29.84;37.70;101567.16;10582278;28;20044;-75
2021/09/17 13:03:21;;;;;;;9.45;3.55;;;;;;;29.15;38.02;101553.13;10581732;28;20031;-76
2021/09/17 13:08:22;;;;;;;4.18;3.20;;;;;;;28.97;38.65;101568.78;10582514;28;20027;-75
2021/09/17 13:13:22;;;;;;;3.55;3.22;;;;;;;28.27;39.52;101566.81;10582437;28;20093;-75
2021/09/17 13:18:23;;;;;;;7.35;4.32;;;;;;;28.31;39.94;101569.81;10582036;28;20043;-75
2021/09/17 13:23:23;;;;;;;4.93;4.45;;;;;;;28.49;39.15;101563.44;10582033;28;20394;-75
2021/09/17 13:28:24;;;;;;;13.27;4.85;;;;;;;28.18;38.49;101440.50;10581549;28;20034;-76
2021/09/17 13:33:24;;;;;;;5.10;3.95;;;;;;;29.88;37.20;101553.38;10545904;28;20047;-75
2021/09/17 13:38:25;;;;;;;5.95;4.70;;;;;;;29.60;37.62;101546.97;10563241;28;20095;-75
2021/09/17 13:43:25;;;;;;;3.92;3.53;;;;;;;29.77;37.21;101550.00;10581285;28;20027;-75
2021/09/17 13:48:26;;;;;;;4.97;4.28;;;;;;;29.70;37.90;101546.78;10563060;28;20054;-75
2021/09/17 13:53:26;;;;;;;3.33;3.03;;;;;;;30.47;36.50;101540.31;10581105;28;20050;-74
2021/09/17 13:58:27;;;;;;;11.85;5.38;;;;;;;30.62;36.10;101525.13;10580950;28;20051;-74
2021/09/17 14:03:28;;;;;;;8.45;4.65;;;;;;;30.54;36.40;101520.31;10562377;28;20065;-76
2021/09/17 14:08:28;;;;;;;8.23;4.45;;;;;;;30.51;36.56;101532.13;10581860;28;20039;-76
2021/09/17 14:13:29;;;;;;;7.63;4.38;;;;;;;29.54;36.53;101386.34;10563214;28;20130;-75
2021/09/17 14:18:29;;;;;;;4.78;4.28;;;;;;;29.94;37.32;101524.22;10580538;28;20066;-76
2021/09/17 14:23:30;;;;;;;5.78;3.92;;;;;;;30.21;36.94;101526.13;10580851;28;20044;-75
2021/09/17 14:28:30;;;;;;;4.43;3.83;;;;;;;30.05;36.55;101524.78;10563144;28;20035;-75
2021/09/17 14:33:31;;;;;;;12.50;5.05;;;;;;;30.15;36.74;101518.16;10587782;28;20083;-76
2021/09/17 14:38:31;;;;;;;3.22;2.95;;;;;;;30.05;37.06;101516.41;10569977;28;20036;-75
2021/09/17 14:43:33;;;;;;;3.90;3.58;;;;;;;30.04;36.45;101511.97;10587555;28;20036;-76
2021/09/17 14:48:33;;;;;;;4.15;3.75;;;;;;;29.70;37.12;101492.91;10588553;28;20032;-75
2021/09/17 14:53:34;;;;;;;3.63;3.33;;;;;;;29.24;37.73;101517.00;10569736;28;20035;-75
2021/09/17 14:58:35;;;;;;;7.10;3.70;;;;;;;28.16;38.41;101526.28;10587520;28;20124;-76
2021/09/17 15:03:36;;;;;;;5.00;4.10;;;;;;;27.38;39.65;101513.66;10586878;28;20089;-74
2021/09/17 15:08:37;;;;;;;4.95;3.85;;;;;;;25.75;41.02;101368.72;10586358;28;20073;-75
2021/09/17 15:13:37;;;;;;;4.15;3.75;;;;;;;26.30;41.50;101497.13;10586679;28;20046;-75
2021/09/17 15:18:38;;;;;;;4.43;4.10;;;;;;;25.89;41.73;101514.03;10586890;28;20031;-75
2021/09/17 15:23:39;;;;;;;4.47;4.07;;;;;;;25.17;42.16;101446.06;10585942;28;20032;-75
2021/09/17 15:28:39;;;;;;;3.78;3.47;;;;;;;24.92;42.98;101427.53;10567811;28;20032;-74
2021/09/17 15:33:40;;;;;;;4.47;4.13;;;;;;;25.29;42.63;101488.19;10585243;28;20158;-76
2021/09/17 15:38:40;;;;;;;15.30;5.53;;;;;;;25.32;43.15;101509.78;10586036;28;20471;-76
2021/09/17 15:43:41;;;;;;;8.02;4.55;;;;;;;25.18;43.72;101509.56;10584506;28;20027;-75
2021/09/17 15:48:41;;;;;;;7.40;3.55;;;;;;;25.07;43.71;101516.19;10567006;28;20040;-76
2021/09/17 15:53:42;;;;;;;6.97;4.22;;;;;;;24.99;43.68;101509.28;10584977;28;20046;-75
2021/09/17 15:58:43;;;;;;;9.63;5.90;;;;;;;24.95;44.13;101513.75;10566094;28;20058;-75
2021/09/17 16:03:43;;;;;;;9.80;4.55;;;;;;;24.00;44.17;101361.22;10584449;28;20048;-75
2021/09/17 16:08:44;;;;;;;7.05;4.68;;;;;;;24.55;44.43;101479.41;10584142;28;20535;-75
2021/09/17 16:13:45;;;;;;;5.40;4.95;;;;;;;24.47;44.68;101491.03;10583292;28;20043;-76
2021/09/17 16:18:46;;;;;;;9.77;5.22;;;;;;;23.64;44.30;101358.34;10583366;28;20039;-75
2021/09/17 16:23:47;;;;;;;7.47;6.18;;;;;;;24.45;44.47;101509.88;10583549;28;20036;-75
2021/09/17 16:28:47;;;;;;;6.60;4.20;;;;;;;24.23;44.73;101540.53;10565293;28;20122;-75
2021/09/17 16:33:52;;;;;;;8.38;5.03;;;;;;;24.08;45.06;101510.06;10582723;28;20050;-75
2021/09/17 16:38:53;;;;;;;13.25;5.13;;;;;;;22.97;45.04;101338.84;10582904;28;20130;-75
2021/09/17 16:43:53;;;;;;;8.50;5.15;;;;;;;23.85;45.34;101503.91;10548075;28;20034;-75
2021/09/17 16:48:54;;;;;;;5.65;5.13;;;;;;;23.73;45.54;101506.06;10564439;28;20387;-75
2021/09/17 16:53:54;;;;;;;6.93;5.47;;;;;;;23.53;45.92;101500.44;10583103;28;20046;-75
2021/09/17 16:58:56;;;;;;;12.70;5.38;;;;;;;22.34;46.29;101329.63;10582865;28;20051;-74
2021/09/17 17:03:58;;;;;;;11.80;4.90;;;;;;;23.21;46.50;101495.84;10582196;28;20424;-75
2021/09/17 17:08:59;;;;;;;6.90;6.20;;;;;;;21.59;46.58;101259.78;10564894;28;20039;-75
2021/09/17 17:13:59;;;;;;;10.77;6.07;;;;;;;22.36;46.73;101387.28;10582398;28;20027;-75
2021/09/17 17:19:00;;;;;;;8.10;6.63;;;;;;;22.24;46.92;101391.09;10582163;28;20498;-75
2021/09/17 17:24:00;;;;;;;7.70;6.97;;;;;;;22.81;47.03;101488.94;10563352;28;20399;-75
2021/09/17 17:29:01;;;;;;;10.10;7.60;;;;;;;22.58;46.96;101490.13;10563126;28;20524;-75
2021/09/17 17:34:02;;;;;;;8.65;5.78;;;;;;;22.29;47.46;101456.50;10562640;28;20031;-75
2021/09/17 17:39:02;;;;;;;12.93;7.20;;;;;;;22.32;47.90;101483.56;10562752;28;20046;-75
2021/09/17 17:44:03;;;;;;;7.65;6.68;;;;;;;22.13;48.44;101496.03;10581934;28;20036;-75
2021/09/17 17:49:04;;;;;;;8.43;6.93;;;;;;;21.00;48.62;101342.34;10563316;28;20038;-75
2021/09/17 17:54:04;;;;;;;10.40;7.05;;;;;;;21.76;48.92;101488.47;10581710;28;20034;-75
2021/09/17 17:59:05;;;;;;;9.70;7.70;;;;;;;21.57;49.07;101499.00;10581484;28;20063;-75
2021/09/17 18:04:06;;;;;;;9.10;8.20;;;;;;;20.39;49.85;101353.31;10582197;28;20039;-75
2021/09/17 18:09:06;;;;;;;13.25;8.50;;;;;;;21.15;50.53;101516.03;10570636;28;20035;-75
2021/09/17 18:14:07;;;;;;;17.02;8.57;;;;;;;21.01;50.78;101500.94;10588707;28;20031;-75
2021/09/17 18:19:07;;;;;;;13.77;9.02;;;;;;;20.63;51.16;101470.38;10588453;28;20039;-75
2021/09/17 18:24:08;;;;;;;12.15;9.23;;;;;;;20.48;50.54;101488.50;10570223;28;20166;-75
2021/09/17 18:29:08;;;;;;;8.95;8.05;;;;;;;20.41;53.23;101505.19;10570249;28;20092;-75
2021/09/17 18:34:09;;;;;;;11.68;8.05;;;;;;;19.64;52.87;101379.25;10569679;28;20028;-76
2021/09/17 18:39:09;;;;;;;10.57;8.52;;;;;;;20.19;52.64;101486.63;10570150;28;20455;-75
2021/09/17 18:44:10;;;;;;;11.45;8.68;;;;;;;19.40;52.90;101370.22;10587573;28;20387;-76
2021/09/17 18:49:10;;;;;;;13.80;10.20;;;;;;;19.37;52.54;101401.78;10569513;28;20039;-80
2021/09/17 18:54:11;;;;;;;8.98;8.07;;;;;;;20.16;53.01;101528.38;10588225;28;20043;-80
2021/09/17 18:59:12;;;;;;;10.35;8.98;;;;;;;20.08;54.13;101539.78;10572129;28;20047;-80
2021/09/17 19:04:12;;;;;;;10.35;8.65;;;;;;;19.65;54.36;101490.81;10571294;28;20046;-80
2021/09/17 19:09:14;;;;;;;14.23;9.55;;;;;;;19.22;54.61;101432.50;10593510;28;20034;-81
2021/09/17 19:14:21;;;;;;;15.02;9.82;;;;;;;19.89;54.43;101546.56;10553278;28;20040;-81
2021/09/17 19:19:21;;;;;;;16.70;10.07;;;;;;;19.00;54.96;101435.03;10571545;28;20042;-81
2021/09/17 19:24:22;;;;;;;17.27;10.93;;;;;;;19.74;55.01;101566.31;10553694;28;20123;-78
2021/09/17 19:29:23;;;;;;;12.68;10.40;;;;;;;19.70;55.10;101571.44;10568859;28;20054;-80
2021/09/17 19:34:23;;;;;;;13.90;11.63;;;;;;;19.25;55.37;101519.06;10585433;28;20119;-80
2021/09/17 19:39:25;;;;;;;22.15;14.23;;;;;;;19.60;55.18;101595.94;10568233;28;20137;-81
2021/09/17 19:44:25;;;;;;;26.55;12.82;;;;;;;19.56;54.84;101596.63;10585522;28;20089;-81
2021/09/17 19:49:27;;;;;;;15.50;12.02;;;;;;;17.35;54.74;101255.00;10571803;28;20032;-81
2021/09/17 19:54:27;;;;;;;13.52;12.07;;;;;;;18.93;55.35;101532.31;10569007;28;20032;-80
2021/09/17 19:59:28;;;;;;;12.70;11.35;;;;;;;19.33;55.39;101608.47;10566795;28;20099;-80
2021/09/17 20:04:28;;;;;;;19.35;13.35;;;;;;;18.92;55.93;101544.34;10566755;28;20099;-81
2021/09/17 20:09:29;;;;;;;19.45;12.52;;;;;;;19.05;55.98;101561.44;10586176;28;20360;-80
2021/09/17 20:14:29;;;;;;;23.20;13.80;;;;;;;19.32;56.10;101617.78;10568241;28;20039;-81
2021/09/17 20:19:29;;;;;;;16.70;13.00;;;;;;;19.10;56.04;101588.16;10549674;28;20479;-80
2021/09/17 20:24:30;;;;;;;17.10;14.10;;;;;;;19.25;56.19;101605.00;10584488;28;20461;-81
2021/09/17 20:29:31;;;;;;;23.27;13.95;;;;;;;19.08;56.36;101589.47;10584510;28;20047;-81
2021/09/17 20:34:33;;;;;;;20.17;15.65;;;;;;;17.66;57.04;101412.75;10583330;28;20494;-80
2021/09/17 20:39:33;;;;;;;21.33;17.15;;;;;;;18.87;55.70;101583.50;10549070;28;20499;-80
2021/09/17 20:44:35;;;;;;;27.27;18.80;;;;;;;18.84;58.30;101586.72;10549873;28;20159;-80
2021/09/17 20:49:36;;;;;;;24.95;18.30;;;;;;;18.88;58.23;101584.31;10566292;28;20044;-82
2021/09/17 20:54:36;;;;;;;30.60;18.30;;;;;;;18.94;58.02;101619.06;10564963;28;20036;-82
2021/09/17 20:59:36;;;;;;;24.23;18.33;;;;;;;18.92;57.62;101597.34;10548038;28;20054;-80
2021/09/17 21:04:37;;;;;;;24.92;17.73;;;;;;;18.98;57.56;101610.09;10582941;28;20085;-81
2021/09/17 21:09:37;;;;;;;20.50;16.35;;;;;;;18.83;57.28;101593.28;10585240;28;20036;-80
2021/09/17 21:14:38;;;;;;;30.33;18.02;;;;;;;18.92;57.53;101618.44;10548535;28;20067;-79
2021/09/17 21:19:39;;;;;;;28.25;17.20;;;;;;;18.90;57.86;101626.09;10564811;28;20429;-80
2021/09/17 21:24:39;;;;;;;20.42;15.65;;;;;;;16.74;57.72;101267.81;10583249;28;20162;-79
2021/09/17 21:29:40;;;;;;;22.67;16.17;;;;;;;18.62;57.41;101589.13;10583420;28;20090;-79
2021/09/17 21:34:42;;;;;;;29.98;18.52;;;;;;;18.04;57.97;101488.34;10582257;28;20085;-81
2021/09/17 21:39:42;;;;;;;28.30;19.35;;;;;;;18.81;58.09;101617.38;10569586;28;20114;-79
2021/09/17 21:44:43;;;;;;;27.92;19.40;;;;;;;18.80;58.10;101621.19;10592380;28;20036;-80
2021/09/17 21:49:44;;;;;;;30.30;16.00;;;;;;;18.30;58.34;101552.91;10577181;28;20474;-80
2021/09/17 21:54:44;;;;;;;28.70;18.42;;;;;;;18.77;58.56;101632.63;10592666;28;20031;-76
2021/09/17 21:59:44;;;;;;;24.45;19.17;;;;;;;18.54;58.13;101584.81;10592625;28;20134;-75
2021/09/17 22:04:45;;;;;;;25.50;19.92;;;;;;;19.02;58.29;101640.69;10573839;28;20039;-75
2021/09/17 22:09:45;;;;;;;30.75;18.08;;;;;;;19.10;58.21;101634.00;10592417;28;20059;-75
2021/09/17 22:14:46;;;;;;;27.88;19.67;;;;;;;17.90;57.72;101454.81;10574294;28;20039;-75
2021/09/17 22:19:46;;;;;;;30.98;18.00;;;;;;;18.79;57.69;101619.50;10574499;28;20036;-75
2021/09/17 22:24:46;;;;;;;31.63;21.58;;;;;;;18.69;57.63;101630.19;10571956;28;20032;-75
2021/09/17 22:29:47;;;;;;;34.33;21.70;;;;;;;18.65;57.66;101632.56;10571482;28;20039;-75
2021/09/17 22:34:47;;;;;;;34.00;22.30;;;;;;;18.47;58.57;101625.19;10570604;28;20432;-75
2021/09/17 22:39:48;;;;;;;27.58;22.38;;;;;;;18.50;58.87;101632.13;10588046;28;20039;-75
2021/09/17 22:44:48;;;;;;;32.63;23.42;;;;;;;18.50;58.61;101638.44;10569686;28;20031;-75